createdAt,value
2022-07-29T00:02:25.599Z,23.39
2022-07-29T00:04:52.352Z,23.04
2022-07-29T00:07:19.005Z,23.10
2022-07-29T00:09:51.911Z,22.85
2022-07-29T00:12:25.532Z,23.16
2022-07-29T00:14:54.626Z,23.04
2022-07-29T00:17:21.713Z,22.98
2022-07-29T00:19:48.373Z,22.96
2022-07-29T00:22:16.239Z,23.08
2022-07-29T00:24:42.880Z,23.08
2022-07-29T00:27:09.561Z,23.14
2022-07-29T00:29:36.198Z,23.49
2022-07-29T00:32:03.633Z,23.45
2022-07-29T00:34:31.218Z,23.27
2022-07-29T00:36:58.045Z,22.79
2022-07-29T00:39:24.685Z,22.90
2022-07-29T00:41:51.537Z,22.56
2022-07-29T00:44:18.558Z,22.89
2022-07-29T00:46:45.330Z,22.95
2022-07-29T00:49:12.339Z,23.16
2022-07-29T00:51:39.098Z,23.18
2022-07-29T00:54:06.516Z,23.06
2022-07-29T00:56:34.228Z,23.14
2022-07-29T00:59:01.193Z,22.94
2022-07-29T01:01:28.055Z,23.44
2022-07-29T01:03:54.879Z,23.26
2022-07-29T01:06:21.799Z,23.13
2022-07-29T01:08:49.052Z,23.18
2022-07-29T01:11:17.292Z,23.01
2022-07-29T01:13:45.523Z,22.60
2022-07-29T01:16:19.255Z,22.75
2022-07-29T01:18:50.023Z,22.84
2022-07-29T01:21:45.609Z,22.89
2022-07-29T01:25:07.881Z,22.87
2022-07-29T01:27:40.215Z,22.95
2022-07-29T01:30:09.816Z,22.93
2022-07-29T01:32:39.777Z,23.00
2022-07-29T01:35:11.793Z,22.82
2022-07-29T01:37:44.586Z,22.64
2022-07-29T01:40:19.731Z,22.45
2022-07-29T01:42:55.381Z,22.36
2022-07-29T01:45:38.569Z,22.37
2022-07-29T01:48:25.546Z,22.39
2022-07-29T01:51:07.097Z,22.42
2022-07-29T01:53:45.562Z,22.41
2022-07-29T01:56:14.528Z,22.24
2022-07-29T01:58:43.425Z,22.23
2022-07-29T02:01:11.000Z,22.19
2022-07-29T02:03:39.388Z,22.19
2022-07-29T02:06:08.395Z,22.25
2022-07-29T02:08:38.062Z,22.16
2022-07-29T02:11:07.165Z,22.16
2022-07-29T02:13:36.891Z,22.44
2022-07-29T02:16:07.740Z,22.32
2022-07-29T02:18:38.505Z,22.09
2022-07-29T02:21:05.599Z,21.96
2022-07-29T02:23:45.281Z,21.89
2022-07-29T02:26:23.446Z,21.93
2022-07-29T02:28:53.203Z,21.85
2022-07-29T02:31:25.327Z,21.85
2022-07-29T02:33:54.233Z,21.70
2022-07-29T02:36:23.954Z,21.53
2022-07-29T02:38:51.570Z,21.51
2022-07-29T02:41:30.639Z,21.55
2022-07-29T02:44:05.575Z,21.52
2022-07-29T02:46:36.037Z,21.61
2022-07-29T02:49:25.579Z,21.50
2022-07-29T02:51:56.543Z,21.50
2022-07-29T02:55:20.414Z,21.44
2022-07-29T02:58:17.002Z,21.50
2022-07-29T03:00:46.032Z,21.56
2022-07-29T03:03:16.369Z,21.55
2022-07-29T03:05:43.164Z,21.38
2022-07-29T03:08:11.890Z,21.23
2022-07-29T03:10:40.676Z,21.19
2022-07-29T03:13:09.368Z,21.27
2022-07-29T03:15:37.127Z,21.21
2022-07-29T03:18:04.848Z,21.11
2022-07-29T03:20:31.988Z,21.25
2022-07-29T03:22:58.769Z,21.22
2022-07-29T03:25:25.443Z,21.28
2022-07-29T03:27:52.068Z,21.19
2022-07-29T03:30:21.759Z,21.09
2022-07-29T03:32:52.080Z,21.08
2022-07-29T03:35:20.469Z,21.03
2022-07-29T03:37:47.768Z,21.02
2022-07-29T03:40:23.227Z,20.93
2022-07-29T03:42:52.980Z,20.82
2022-07-29T03:45:20.889Z,20.86
2022-07-29T03:47:54.676Z,20.73
2022-07-29T03:50:23.124Z,20.59
2022-07-29T03:52:50.805Z,20.67
2022-07-29T03:55:18.045Z,20.68
2022-07-29T03:57:46.313Z,20.69
2022-07-29T04:00:13.474Z,20.65
2022-07-29T04:02:41.060Z,20.61
2022-07-29T04:05:13.838Z,20.66
2022-07-29T04:07:41.553Z,20.62
2022-07-29T04:10:08.527Z,20.72
2022-07-29T04:12:35.265Z,20.67
2022-07-29T04:15:03.739Z,20.64
2022-07-29T04:17:30.372Z,20.45
2022-07-29T04:19:57.029Z,20.16
2022-07-29T04:22:23.660Z,20.13
2022-07-29T04:24:51.776Z,20.20
2022-07-29T04:27:18.423Z,20.26
2022-07-29T04:29:57.067Z,20.19
2022-07-29T04:32:25.160Z,20.21
2022-07-29T04:34:52.342Z,20.12
2022-07-29T04:37:19.151Z,20.22
2022-07-29T04:39:45.834Z,20.34
2022-07-29T04:42:12.459Z,20.35
2022-07-29T04:44:40.023Z,20.29
2022-07-29T04:47:10.101Z,20.31
2022-07-29T04:49:39.362Z,20.43
2022-07-29T04:52:06.787Z,20.15
2022-07-29T04:54:33.640Z,20.08
2022-07-29T04:57:00.267Z,20.25
2022-07-29T04:59:26.909Z,20.31
2022-07-29T05:01:53.591Z,20.34
2022-07-29T05:04:20.847Z,20.37
2022-07-29T05:06:47.645Z,20.23
2022-07-29T05:09:14.339Z,20.17
2022-07-29T05:11:40.944Z,20.25
2022-07-29T05:14:07.573Z,20.35
2022-07-29T05:16:34.266Z,20.36
2022-07-29T05:19:00.878Z,20.47
2022-07-29T05:21:27.527Z,20.62
2022-07-29T05:23:54.175Z,20.65
2022-07-29T05:26:20.810Z,20.72
2022-07-29T05:28:47.454Z,20.72
2022-07-29T05:31:14.219Z,20.78
2022-07-29T05:33:44.035Z,20.92
2022-07-29T05:36:10.965Z,20.82
2022-07-29T05:38:37.688Z,20.92
2022-07-29T05:41:07.076Z,21.19
2022-07-29T05:43:34.177Z,21.26
2022-07-29T05:46:00.996Z,21.70
2022-07-29T05:48:28.358Z,21.68
2022-07-29T05:50:55.035Z,21.49
2022-07-29T05:53:21.871Z,22.01
2022-07-29T05:55:49.520Z,21.67
2022-07-29T05:58:16.600Z,21.82
2022-07-29T06:00:43.410Z,22.30
2022-07-29T06:03:10.092Z,22.46
2022-07-29T06:05:36.734Z,22.34
2022-07-29T06:08:03.542Z,22.17
2022-07-29T06:10:30.380Z,22.37
2022-07-29T06:12:57.033Z,22.67
2022-07-29T06:15:23.648Z,22.95
2022-07-29T06:17:59.922Z,23.23
2022-07-29T06:20:28.868Z,23.21
2022-07-29T06:22:55.492Z,23.25
2022-07-29T06:25:22.244Z,23.63
2022-07-29T06:27:48.926Z,23.69
2022-07-29T06:30:15.624Z,23.71
2022-07-29T06:32:43.357Z,24.07
2022-07-29T06:35:37.949Z,24.39
2022-07-29T06:37:59.521Z,24.20
2022-07-29T06:40:26.986Z,24.33
2022-07-29T06:42:53.598Z,24.47
2022-07-29T06:45:20.311Z,24.49
2022-07-29T06:47:46.929Z,24.68
2022-07-29T06:50:13.572Z,24.71
2022-07-29T06:52:40.205Z,24.93
2022-07-29T06:55:07.471Z,25.15
2022-07-29T06:57:34.206Z,25.29
2022-07-29T07:00:01.097Z,25.08
2022-07-29T07:02:27.783Z,25.19
2022-07-29T07:04:54.716Z,25.21
2022-07-29T07:07:21.352Z,25.25
2022-07-29T07:09:48.149Z,25.17
2022-07-29T07:12:14.820Z,25.24
2022-07-29T07:14:41.507Z,25.39
2022-07-29T07:17:08.411Z,25.24
2022-07-29T07:19:35.044Z,25.47
2022-07-29T07:22:01.687Z,25.65
2022-07-29T07:24:30.536Z,25.64
2022-07-29T07:26:57.157Z,25.53
2022-07-29T07:29:23.920Z,25.78
2022-07-29T07:31:50.651Z,25.45
2022-07-29T07:34:17.613Z,25.93
2022-07-29T07:36:55.459Z,26.04
2022-07-29T07:39:22.075Z,25.92
2022-07-29T07:41:48.751Z,25.95
2022-07-29T07:44:16.185Z,26.19
2022-07-29T07:46:42.958Z,26.36
2022-07-29T07:49:09.660Z,26.41
2022-07-29T07:51:36.364Z,26.44
2022-07-29T07:54:03.267Z,26.64
2022-07-29T07:56:35.052Z,26.52
2022-07-29T07:59:02.093Z,26.48
2022-07-29T08:01:28.751Z,26.56
2022-07-29T08:03:55.465Z,26.95
2022-07-29T08:06:22.109Z,27.06
2022-07-29T08:08:48.732Z,26.99
2022-07-29T08:11:15.350Z,27.20
2022-07-29T08:13:42.001Z,27.32
2022-07-29T08:16:09.146Z,27.39
2022-07-29T08:18:35.862Z,27.48
2022-07-29T08:21:02.589Z,27.55
2022-07-29T08:23:45.742Z,27.51
2022-07-29T08:26:14.819Z,27.77
2022-07-29T08:28:43.845Z,28.12
2022-07-29T08:31:10.486Z,28.36
2022-07-29T08:33:37.141Z,28.18
2022-07-29T08:36:04.188Z,28.10
2022-07-29T08:38:30.814Z,28.00
2022-07-29T08:40:57.853Z,28.28
2022-07-29T08:43:25.184Z,28.24
2022-07-29T08:45:52.815Z,28.79
2022-07-29T08:48:22.654Z,28.77
2022-07-29T08:50:55.610Z,28.84
2022-07-29T08:53:23.096Z,28.90
2022-07-29T08:55:50.910Z,28.93
2022-07-29T08:58:18.370Z,28.73
2022-07-29T09:00:53.458Z,29.03
2022-07-29T09:03:25.483Z,28.91
2022-07-29T09:05:52.710Z,29.09
2022-07-29T09:08:19.912Z,29.31
2022-07-29T09:10:46.640Z,29.20
2022-07-29T09:13:13.335Z,29.29
2022-07-29T09:15:41.226Z,29.57
2022-07-29T09:18:07.873Z,29.83
2022-07-29T09:20:53.349Z,29.88
2022-07-29T09:23:23.284Z,29.83
2022-07-29T09:25:51.307Z,29.81
2022-07-29T09:28:18.820Z,30.04
2022-07-29T09:30:59.319Z,30.36
2022-07-29T09:33:33.496Z,30.42
2022-07-29T09:36:10.537Z,30.43
2022-07-29T09:38:37.842Z,30.36
2022-07-29T09:41:06.844Z,30.21
2022-07-29T09:43:34.408Z,30.38
2022-07-29T09:46:14.508Z,30.62
2022-07-29T09:48:41.382Z,30.47
2022-07-29T09:51:21.383Z,30.68
2022-07-29T09:53:48.986Z,30.94
2022-07-29T09:56:15.868Z,31.00
2022-07-29T09:58:42.516Z,30.63
2022-07-29T10:01:09.483Z,30.78
2022-07-29T10:03:52.556Z,30.95
2022-07-29T10:06:19.377Z,30.88
2022-07-29T10:08:46.192Z,30.57
2022-07-29T10:11:20.081Z,30.58
2022-07-29T10:13:49.628Z,30.87
2022-07-29T10:16:17.963Z,30.98
2022-07-29T10:18:45.615Z,30.89
2022-07-29T10:21:22.570Z,30.84
2022-07-29T10:24:01.371Z,31.05
2022-07-29T10:26:30.066Z,30.98
2022-07-29T10:28:56.879Z,30.55
2022-07-29T10:31:32.181Z,31.05
2022-07-29T10:34:08.064Z,31.17
2022-07-29T10:36:37.694Z,31.28
2022-07-29T10:39:22.202Z,31.19
2022-07-29T10:42:20.012Z,31.61
2022-07-29T10:44:47.876Z,31.86
2022-07-29T10:47:28.195Z,31.46
2022-07-29T10:50:02.369Z,31.24
2022-07-29T10:52:50.604Z,31.35
2022-07-29T10:55:37.806Z,31.51
2022-07-29T10:58:20.250Z,31.68
2022-07-29T11:00:52.474Z,31.84
2022-07-29T11:03:52.170Z,31.85
2022-07-29T11:06:26.729Z,31.73
2022-07-29T11:09:17.212Z,31.74
2022-07-29T11:11:51.378Z,31.19
2022-07-29T11:14:56.755Z,31.41
2022-07-29T11:17:24.710Z,31.64
2022-07-29T11:19:52.187Z,31.90
2022-07-29T11:22:36.559Z,32.13
2022-07-29T11:25:17.646Z,32.36
2022-07-29T11:27:45.941Z,32.40
2022-07-29T11:30:12.638Z,32.63
2022-07-29T11:32:41.598Z,32.77
2022-07-29T11:38:28.756Z,32.42
2022-07-29T11:41:21.468Z,32.04
2022-07-29T11:43:53.469Z,31.92
2022-07-29T11:46:49.271Z,31.99
2022-07-29T11:49:31.528Z,31.80
2022-07-29T11:51:59.792Z,32.09
2022-07-29T11:54:57.309Z,31.41
2022-07-29T11:57:23.080Z,31.13
2022-07-29T12:02:55.871Z,32.17
2022-07-29T12:05:37.670Z,32.57
2022-07-29T12:08:18.134Z,32.63
2022-07-29T12:10:45.187Z,33.03
2022-07-29T12:13:12.267Z,33.21
2022-07-29T12:15:46.083Z,33.55
2022-07-29T12:18:19.387Z,33.26
2022-07-29T12:20:47.609Z,33.18
2022-07-29T12:23:16.248Z,33.17
2022-07-29T12:25:44.585Z,32.62
2022-07-29T12:28:16.563Z,32.53
2022-07-29T12:30:53.837Z,32.51
2022-07-29T12:33:25.737Z,32.41
2022-07-29T12:36:07.271Z,32.33
2022-07-29T12:38:36.480Z,32.56
2022-07-29T12:41:04.914Z,32.66
2022-07-29T12:43:32.397Z,32.91
2022-07-29T12:45:59.115Z,33.01
2022-07-29T12:48:40.969Z,33.05
2022-07-29T12:51:09.304Z,32.95
2022-07-29T12:53:37.244Z,33.04
2022-07-29T12:56:15.604Z,33.17
2022-07-29T12:58:52.233Z,33.14
2022-07-29T13:01:20.486Z,33.45
2022-07-29T13:03:56.824Z,33.32
2022-07-29T13:06:32.902Z,33.39
2022-07-29T13:09:06.174Z,33.36
2022-07-29T13:11:36.777Z,32.99
2022-07-29T13:14:06.753Z,33.45
2022-07-29T13:16:34.018Z,33.55
2022-07-29T13:19:12.725Z,33.37
2022-07-29T13:21:40.681Z,33.72
2022-07-29T13:24:08.386Z,33.40
2022-07-29T13:26:35.464Z,33.58
2022-07-29T13:29:02.074Z,33.69
2022-07-29T13:31:28.760Z,33.73
2022-07-29T13:33:55.411Z,33.74
2022-07-29T13:36:22.057Z,33.81
2022-07-29T13:38:48.711Z,33.19
2022-07-29T13:41:15.454Z,32.95
2022-07-29T13:43:44.919Z,33.15
2022-07-29T13:46:11.632Z,33.31
2022-07-29T13:48:38.562Z,33.52
2022-07-29T13:51:05.227Z,33.47
2022-07-29T13:53:31.938Z,33.12
2022-07-29T13:55:58.602Z,33.56
2022-07-29T13:58:25.326Z,33.53
2022-07-29T14:00:52.005Z,33.50
2022-07-29T14:03:18.698Z,33.78
2022-07-29T14:05:45.419Z,33.92
2022-07-29T14:08:12.222Z,34.50
2022-07-29T14:10:38.894Z,34.93
2022-07-29T14:13:05.532Z,34.18
2022-07-29T14:15:48.951Z,34.02
2022-07-29T14:18:15.570Z,33.80
2022-07-29T14:20:42.312Z,34.02
2022-07-29T14:23:08.921Z,34.42
2022-07-29T14:25:36.138Z,33.96
2022-07-29T14:28:06.984Z,33.92
2022-07-29T14:30:33.728Z,34.02
2022-07-29T14:33:00.343Z,34.23
2022-07-29T14:35:27.060Z,34.36
2022-07-29T14:37:53.743Z,34.15
2022-07-29T14:40:20.396Z,34.33
2022-07-29T14:42:47.037Z,34.21
2022-07-29T14:45:13.681Z,34.19
2022-07-29T14:47:41.425Z,34.05
2022-07-29T14:50:09.168Z,33.74
2022-07-29T14:52:36.175Z,34.19
2022-07-29T14:55:04.585Z,34.55
2022-07-29T14:57:31.482Z,34.57
2022-07-29T14:59:58.147Z,33.94
2022-07-29T15:02:40.019Z,34.28
2022-07-29T15:05:11.391Z,34.65
2022-07-29T15:07:38.079Z,34.46
2022-07-29T15:10:05.018Z,34.47
2022-07-29T15:12:34.990Z,34.23
2022-07-29T15:15:01.610Z,33.99
2022-07-29T15:17:30.258Z,34.13
2022-07-29T15:19:56.881Z,33.62
2022-07-29T15:22:23.556Z,34.18
2022-07-29T15:24:50.293Z,34.48
2022-07-29T15:27:16.923Z,34.24
2022-07-29T15:29:45.087Z,34.70
2022-07-29T15:32:12.005Z,34.81
2022-07-29T15:34:39.100Z,34.75
2022-07-29T15:37:06.218Z,34.87
2022-07-29T15:39:33.226Z,34.70
2022-07-29T15:42:00.445Z,35.00
2022-07-29T15:44:27.370Z,35.13
2022-07-29T15:46:54.090Z,35.16
2022-07-29T15:49:20.845Z,34.92
2022-07-29T15:51:49.555Z,34.75
2022-07-29T15:54:16.171Z,34.72
2022-07-29T15:56:42.793Z,34.68
2022-07-29T15:59:09.425Z,34.76
2022-07-29T16:01:49.878Z,34.29
2022-07-29T16:04:16.801Z,34.68
2022-07-29T16:06:44.968Z,34.73
2022-07-29T16:09:11.825Z,34.95
2022-07-29T16:11:38.520Z,34.68
2022-07-29T16:14:05.443Z,35.09
2022-07-29T16:16:35.856Z,35.24
2022-07-29T16:19:03.457Z,34.32
2022-07-29T16:21:30.194Z,34.11
2022-07-29T16:23:57.467Z,33.53
2022-07-29T16:26:24.706Z,33.34
2022-07-29T16:28:51.326Z,33.73
2022-07-29T16:31:18.644Z,33.95
2022-07-29T16:33:54.833Z,34.76
2022-07-29T16:36:23.139Z,34.38
2022-07-29T16:38:50.832Z,35.26
2022-07-29T16:41:17.663Z,36.04
2022-07-29T16:43:44.518Z,36.05
2022-07-29T16:46:13.107Z,36.42
2022-07-29T16:48:45.489Z,36.84
2022-07-29T16:51:14.277Z,35.77
2022-07-29T16:53:41.610Z,35.91
2022-07-29T16:56:11.824Z,35.49
2022-07-29T16:58:43.618Z,34.16
2022-07-29T17:01:11.802Z,34.31
2022-07-29T17:03:38.518Z,34.77
2022-07-29T17:06:05.201Z,34.59
2022-07-29T17:08:31.940Z,34.38
2022-07-29T17:10:58.572Z,34.34
2022-07-29T17:13:25.217Z,34.23
2022-07-29T17:15:51.843Z,32.68
2022-07-29T17:18:18.575Z,33.03
2022-07-29T17:20:45.276Z,33.12
2022-07-29T17:23:11.911Z,33.35
2022-07-29T17:25:38.609Z,32.97
2022-07-29T17:28:05.309Z,32.91
2022-07-29T17:30:31.946Z,33.14
2022-07-29T17:32:58.551Z,32.97
2022-07-29T17:35:25.224Z,32.95
2022-07-29T17:37:52.410Z,32.69
2022-07-29T17:40:19.036Z,32.48
2022-07-29T17:42:45.745Z,32.14
2022-07-29T17:45:12.495Z,32.18
2022-07-29T17:47:39.217Z,31.93
2022-07-29T17:50:06.066Z,31.79
2022-07-29T17:52:32.711Z,31.59
2022-07-29T17:54:59.486Z,31.41
2022-07-29T17:57:26.211Z,31.30
2022-07-29T17:59:52.895Z,31.21
2022-07-29T18:02:19.554Z,31.00
2022-07-29T18:04:46.263Z,30.86
2022-07-29T18:07:17.252Z,30.85
2022-07-29T18:09:43.933Z,30.70
2022-07-29T18:12:10.772Z,30.59
2022-07-29T18:14:37.585Z,30.44
2022-07-29T18:17:04.235Z,30.31
2022-07-29T18:19:30.855Z,30.27
2022-07-29T18:22:03.162Z,30.15
2022-07-29T18:24:31.678Z,30.06
2022-07-29T18:26:58.540Z,29.96
2022-07-29T18:29:25.416Z,29.80
2022-07-29T18:31:52.029Z,29.69
2022-07-29T18:34:21.313Z,29.60
2022-07-29T18:36:48.008Z,29.46
2022-07-29T18:39:20.376Z,29.44
2022-07-29T18:41:51.879Z,29.29
2022-07-29T18:44:22.838Z,29.09
2022-07-29T18:46:50.954Z,29.00
2022-07-29T18:49:18.015Z,29.00
2022-07-29T18:51:44.690Z,28.99
2022-07-29T18:54:11.492Z,28.99
2022-07-29T18:56:38.199Z,28.90
2022-07-29T18:59:05.236Z,28.78
2022-07-29T19:01:32.242Z,28.74
2022-07-29T19:03:59.473Z,28.75
2022-07-29T19:06:26.259Z,28.77
2022-07-29T19:08:53.672Z,28.76
2022-07-29T19:11:20.380Z,28.77
2022-07-29T19:13:47.019Z,28.76
2022-07-29T19:16:13.762Z,28.75
2022-07-29T19:18:40.973Z,29.02
2022-07-29T19:21:07.721Z,28.00
2022-07-29T19:24:06.059Z,27.69
2022-07-29T19:26:21.523Z,27.17
2022-07-29T19:28:48.851Z,27.34
2022-07-29T19:31:16.131Z,27.49
2022-07-29T19:33:42.810Z,27.41
2022-07-29T19:36:09.490Z,27.25
2022-07-29T19:38:36.195Z,27.44
2022-07-29T19:41:02.814Z,26.99
2022-07-29T19:43:50.354Z,27.23
2022-07-29T19:46:16.095Z,27.08
2022-07-29T19:48:42.780Z,27.12
2022-07-29T19:51:09.450Z,27.21
2022-07-29T19:53:36.094Z,27.13
2022-07-29T19:56:02.742Z,27.01
2022-07-29T19:58:29.985Z,27.21
2022-07-29T20:00:56.637Z,27.23
2022-07-29T20:03:23.285Z,27.24
2022-07-29T20:05:50.289Z,27.32
2022-07-29T20:08:17.651Z,26.82
2022-07-29T20:10:44.555Z,26.53
2022-07-29T20:13:11.247Z,26.62
2022-07-29T20:15:37.980Z,26.78
2022-07-29T20:18:05.144Z,26.17
2022-07-29T20:20:31.769Z,26.30
2022-07-29T20:22:58.688Z,26.43
2022-07-29T20:25:25.816Z,26.30
2022-07-29T20:27:52.673Z,26.20
2022-07-29T20:30:20.058Z,26.33
2022-07-29T20:32:48.123Z,26.60
2022-07-29T20:35:14.791Z,26.54
2022-07-29T20:37:55.664Z,26.40
2022-07-29T20:40:24.756Z,26.52
2022-07-29T20:42:51.441Z,26.96
2022-07-29T20:45:18.041Z,26.79
2022-07-29T20:47:44.671Z,26.79
2022-07-29T20:50:11.635Z,26.69
2022-07-29T20:52:38.404Z,26.43
2022-07-29T20:55:05.573Z,26.53
2022-07-29T20:57:38.495Z,26.79
2022-07-29T21:00:07.426Z,26.85
2022-07-29T21:02:34.297Z,26.93
2022-07-29T21:05:01.001Z,26.50
2022-07-29T21:07:27.662Z,26.44
2022-07-29T21:09:54.399Z,26.37
2022-07-29T21:12:21.165Z,27.02
2022-07-29T21:14:47.901Z,27.14
2022-07-29T21:17:15.997Z,26.92
2022-07-29T21:19:42.826Z,26.90
2022-07-29T21:22:09.866Z,27.02
2022-07-29T21:24:36.539Z,26.91
2022-07-29T21:27:19.688Z,26.73
2022-07-29T21:29:47.660Z,26.62
2022-07-29T21:32:14.373Z,26.62
2022-07-29T21:34:57.230Z,26.51
2022-07-29T21:37:24.068Z,26.49
2022-07-29T21:39:50.808Z,26.56
2022-07-29T21:42:17.458Z,26.53
2022-07-29T21:44:44.110Z,26.62
2022-07-29T21:47:10.749Z,26.62
2022-07-29T21:49:37.962Z,26.32
2022-07-29T21:52:05.017Z,26.44
2022-07-29T21:54:31.830Z,26.13
2022-07-29T21:56:58.550Z,25.93
2022-07-29T21:59:27.584Z,25.72
2022-07-29T22:01:54.284Z,25.56
2022-07-29T22:04:21.256Z,25.44
2022-07-29T22:06:47.984Z,25.53
2022-07-29T22:09:14.593Z,25.42
2022-07-29T22:11:41.205Z,25.50
2022-07-29T22:14:08.018Z,25.31
2022-07-29T22:16:34.709Z,25.38
2022-07-29T22:19:01.381Z,25.43
2022-07-29T22:21:27.994Z,25.67
2022-07-29T22:23:54.634Z,25.52
2022-07-29T22:26:21.348Z,25.36
2022-07-29T22:28:48.088Z,25.30
2022-07-29T22:31:14.755Z,25.54
2022-07-29T22:33:41.442Z,25.92
2022-07-29T22:36:08.186Z,25.47
2022-07-29T22:38:34.826Z,25.16
2022-07-29T22:41:01.725Z,24.42
2022-07-29T22:43:30.128Z,24.62
2022-07-29T22:45:56.769Z,24.78
2022-07-29T22:48:23.457Z,24.75
2022-07-29T22:50:50.073Z,24.85
2022-07-29T22:53:16.682Z,24.99
2022-07-29T22:55:43.460Z,24.99
2022-07-29T22:58:10.066Z,24.92
2022-07-29T23:00:36.782Z,25.00
2022-07-29T23:03:03.412Z,24.88
2022-07-29T23:05:30.106Z,25.15
2022-07-29T23:07:56.718Z,24.92
2022-07-29T23:10:23.502Z,24.77
2022-07-29T23:12:50.154Z,25.03
2022-07-29T23:15:16.840Z,24.63
2022-07-29T23:17:44.817Z,24.33
2022-07-29T23:20:11.539Z,24.50
2022-07-29T23:22:41.965Z,24.19
2022-07-29T23:25:08.845Z,24.37
2022-07-29T23:27:36.286Z,24.48
2022-07-29T23:30:04.840Z,24.27
2022-07-29T23:32:31.537Z,24.26
2022-07-29T23:34:58.174Z,24.63
2022-07-29T23:37:24.770Z,24.45
2022-07-29T23:39:53.590Z,24.40
2022-07-29T23:42:20.259Z,24.32
2022-07-29T23:44:46.952Z,24.22
2022-07-29T23:47:13.591Z,24.18
2022-07-29T23:49:40.273Z,24.16
2022-07-29T23:52:06.963Z,24.13
2022-07-29T23:54:33.604Z,24.20
2022-07-29T23:57:00.619Z,24.18
2022-07-29T23:59:27.371Z,24.12
